METAR

TAF

 




Rio de Janeiro / Galeão - Antonio Carlos Jobim, RJ - SBGL


01 de Setembro de 2014 às 23:00 (UTC)


Tempo:

Céu sem restrições operacionais para aviação

Temperatura:

23ºC

Umidade Relativa:

65%

Localização:
Ajuste do Altímetro:

1012 hPa

Visibilidade Horizontal Predominante:

Igual ou acima de 10 Km

Direção e Velocidade do Vento:

250° 14,82 Km/h


Observação Meteorológica:

METAR SBGL 012300Z 25008KT CAVOK 23/16 Q1012=